Paint Mill Lake, Indiana
Current Conditions -  °F | °C
As of 12:53 PM on Friday 21 Nov 2014 (Local Time) from KHUF Reporting Station
Clear Clear  
Wind Chill: 24°   Ceiling: Unl
Heat Index: 32°   Visibility: 10mi
Dew Point: 10°   Wind: 9mph
Humidity: 40%   Direction: 140°SE
Pressure: 30.46"   Gusts: NA
Location:  39.3587°N, 87.4056°W
Report Text: KHUF 211753Z 14008KT 10SM CLR 00/M12 A3046 RMK AO2 SLP321 T00001122 10000 21117 58015
Loading
Personal Weather Stations






























Interactive Weather Map New forecast layout! Learn more

10-Day Weather Forecast

Advertisements
Track Severe Weather on mobile